sensor_id;sensor_type;location;lat;lon;timestamp;P1;durP1;ratioP1;P2;durP2;ratioP2
35494;SDS011;75532;49.300;6.846;2024-01-11T00:01:20;6.50;;;5.90;;
35494;SDS011;75532;49.300;6.846;2024-01-11T00:04:20;6.93;;;6.30;;
35494;SDS011;75532;49.300;6.846;2024-01-11T00:07:21;7.03;;;6.40;;
35494;SDS011;75532;49.300;6.846;2024-01-11T00:10:22;6.05;;;5.55;;
35494;SDS011;75532;49.300;6.846;2024-01-11T00:13:23;7.05;;;6.35;;
35494;SDS011;75532;49.300;6.846;2024-01-11T00:16:23;6.43;;;5.82;;
35494;SDS011;75532;49.300;6.846;2024-01-11T00:19:24;7.18;;;6.55;;
35494;SDS011;75532;49.300;6.846;2024-01-11T00:22:24;6.18;;;5.68;;
35494;SDS011;75532;49.300;6.846;2024-01-11T00:25:25;7.95;;;6.68;;
35494;SDS011;75532;49.300;6.846;2024-01-11T00:28:25;7.15;;;6.45;;
35494;SDS011;75532;49.300;6.846;2024-01-11T00:31:26;8.32;;;6.43;;
35494;SDS011;75532;49.300;6.846;2024-01-11T00:34:27;6.45;;;5.82;;
35494;SDS011;75532;49.300;6.846;2024-01-11T00:37:28;7.15;;;6.45;;
35494;SDS011;75532;49.300;6.846;2024-01-11T00:40:28;6.50;;;5.90;;
35494;SDS011;75532;49.300;6.846;2024-01-11T00:43:29;6.53;;;5.85;;
35494;SDS011;75532;49.300;6.846;2024-01-11T00:46:30;7.97;;;5.90;;
35494;SDS011;75532;49.300;6.846;2024-01-11T00:49:31;6.90;;;6.28;;
35494;SDS011;75532;49.300;6.846;2024-01-11T00:52:32;6.70;;;6.10;;
35494;SDS011;75532;49.300;6.846;2024-01-11T00:55:32;6.68;;;5.53;;
35494;SDS011;75532;49.300;6.846;2024-01-11T00:58:33;6.65;;;6.05;;
35494;SDS011;75532;49.300;6.846;2024-01-11T01:01:33;6.68;;;6.13;;
35494;SDS011;75532;49.300;6.846;2024-01-11T01:04:37;7.28;;;5.90;;
35494;SDS011;75532;49.300;6.846;2024-01-11T01:07:39;6.78;;;6.15;;
35494;SDS011;75532;49.300;6.846;2024-01-11T01:10:40;7.25;;;6.07;;
35494;SDS011;75532;49.300;6.846;2024-01-11T01:13:40;6.35;;;5.82;;
35494;SDS011;75532;49.300;6.846;2024-01-11T01:16:41;6.30;;;5.70;;
35494;SDS011;75532;49.300;6.846;2024-01-11T01:19:42;6.40;;;5.78;;
35494;SDS011;75532;49.300;6.846;2024-01-11T01:22:43;6.45;;;5.85;;
35494;SDS011;75532;49.300;6.846;2024-01-11T01:25:44;6.32;;;5.82;;
35494;SDS011;75532;49.300;6.846;2024-01-11T01:28:45;6.05;;;5.55;;
35494;SDS011;75532;49.300;6.846;2024-01-11T01:31:45;6.20;;;5.53;;
35494;SDS011;75532;49.300;6.846;2024-01-11T01:34:46;6.88;;;6.18;;
35494;SDS011;75532;49.300;6.846;2024-01-11T01:37:46;6.40;;;5.80;;
35494;SDS011;75532;49.300;6.846;2024-01-11T01:40:47;6.97;;;6.20;;
35494;SDS011;75532;49.300;6.846;2024-01-11T01:43:47;6.78;;;6.15;;
35494;SDS011;75532;49.300;6.846;2024-01-11T01:46:48;7.38;;;6.68;;
35494;SDS011;75532;49.300;6.846;2024-01-11T01:49:49;6.97;;;6.28;;
35494;SDS011;75532;49.300;6.846;2024-01-11T01:52:50;7.15;;;6.45;;
35494;SDS011;75532;49.300;6.846;2024-01-11T01:55:51;7.03;;;6.43;;
35494;SDS011;75532;49.300;6.846;2024-01-11T01:58:53;6.95;;;6.25;;
35494;SDS011;75532;49.300;6.846;2024-01-11T02:01:54;6.95;;;6.32;;
35494;SDS011;75532;49.300;6.846;2024-01-11T02:04:55;6.75;;;6.15;;
35494;SDS011;75532;49.300;6.846;2024-01-11T02:07:56;6.45;;;5.85;;
35494;SDS011;75532;49.300;6.846;2024-01-11T02:10:59;6.72;;;5.35;;
35494;SDS011;75532;49.300;6.846;2024-01-11T02:14:00;6.82;;;6.13;;
35494;SDS011;75532;49.300;6.846;2024-01-11T02:17:01;6.03;;;5.53;;
35494;SDS011;75532;49.300;6.846;2024-01-11T02:20:02;6.18;;;5.57;;
35494;SDS011;75532;49.300;6.846;2024-01-11T02:23:05;6.60;;;6.00;;
35494;SDS011;75532;49.300;6.846;2024-01-11T02:26:15;6.03;;;5.43;;
35494;SDS011;75532;49.300;6.846;2024-01-11T02:29:16;6.10;;;5.60;;
35494;SDS011;75532;49.300;6.846;2024-01-11T02:32:16;7.18;;;6.57;;
35494;SDS011;75532;49.300;6.846;2024-01-11T02:35:18;5.93;;;5.43;;
35494;SDS011;75532;49.300;6.846;2024-01-11T02:38:19;6.65;;;6.05;;
35494;SDS011;75532;49.300;6.846;2024-01-11T02:41:19;5.93;;;5.43;;
35494;SDS011;75532;49.300;6.846;2024-01-11T02:44:21;7.10;;;6.45;;
35494;SDS011;75532;49.300;6.846;2024-01-11T02:47:22;6.22;;;5.63;;
35494;SDS011;75532;49.300;6.846;2024-01-11T02:50:22;6.10;;;5.57;;
35494;SDS011;75532;49.300;6.846;2024-01-11T02:53:23;6.05;;;5.50;;
35494;SDS011;75532;49.300;6.846;2024-01-11T02:56:24;6.47;;;5.88;;
35494;SDS011;75532;49.300;6.846;2024-01-11T02:59:24;6.05;;;5.40;;
35494;SDS011;75532;49.300;6.846;2024-01-11T03:02:25;6.78;;;6.18;;
35494;SDS011;75532;49.300;6.846;2024-01-11T03:05:26;5.30;;;4.90;;
35494;SDS011;75532;49.300;6.846;2024-01-11T03:08:26;6.53;;;5.93;;
35494;SDS011;75532;49.300;6.846;2024-01-11T03:11:27;7.18;;;6.47;;
35494;SDS011;75532;49.300;6.846;2024-01-11T03:14:28;7.03;;;6.38;;
35494;SDS011;75532;49.300;6.846;2024-01-11T03:17:28;8.18;;;6.25;;
35494;SDS011;75532;49.300;6.846;2024-01-11T03:20:29;6.65;;;6.05;;
35494;SDS011;75532;49.300;6.846;2024-01-11T03:23:29;6.53;;;5.93;;
35494;SDS011;75532;49.300;6.846;2024-01-11T03:26:30;6.72;;;6.10;;
35494;SDS011;75532;49.300;6.846;2024-01-11T03:29:31;6.38;;;5.78;;
35494;SDS011;75532;49.300;6.846;2024-01-11T03:32:31;5.97;;;5.45;;
35494;SDS011;75532;49.300;6.846;2024-01-11T03:35:32;6.00;;;5.50;;
35494;SDS011;75532;49.300;6.846;2024-01-11T03:38:32;6.85;;;6.25;;
35494;SDS011;75532;49.300;6.846;2024-01-11T03:41:33;5.55;;;5.15;;
35494;SDS011;75532;49.300;6.846;2024-01-11T03:44:35;6.90;;;6.22;;
35494;SDS011;75532;49.300;6.846;2024-01-11T03:47:37;6.10;;;5.60;;
35494;SDS011;75532;49.300;6.846;2024-01-11T03:50:37;6.13;;;5.53;;
35494;SDS011;75532;49.300;6.846;2024-01-11T03:53:38;6.25;;;5.72;;
35494;SDS011;75532;49.300;6.846;2024-01-11T03:56:39;6.13;;;5.63;;
35494;SDS011;75532;49.300;6.846;2024-01-11T03:59:40;5.85;;;5.35;;
35494;SDS011;75532;49.300;6.846;2024-01-11T04:02:40;5.95;;;5.45;;
35494;SDS011;75532;49.300;6.846;2024-01-11T04:05:41;6.10;;;5.60;;
35494;SDS011;75532;49.300;6.846;2024-01-11T04:08:42;5.72;;;5.22;;
35494;SDS011;75532;49.300;6.846;2024-01-11T04:11:42;5.78;;;5.32;;
35494;SDS011;75532;49.300;6.846;2024-01-11T04:14:43;6.32;;;5.78;;
35494;SDS011;75532;49.300;6.846;2024-01-11T04:17:44;5.95;;;5.45;;
35494;SDS011;75532;49.300;6.846;2024-01-11T04:20:44;6.47;;;5.47;;
35494;SDS011;75532;49.300;6.846;2024-01-11T04:23:45;6.43;;;5.82;;
35494;SDS011;75532;49.300;6.846;2024-01-11T04:26:45;6.03;;;5.53;;
35494;SDS011;75532;49.300;6.846;2024-01-11T04:29:46;6.78;;;6.18;;
35494;SDS011;75532;49.300;6.846;2024-01-11T04:32:46;6.55;;;5.95;;
35494;SDS011;75532;49.300;6.846;2024-01-11T04:35:47;6.00;;;5.50;;
35494;SDS011;75532;49.300;6.846;2024-01-11T04:38:48;6.38;;;5.68;;
35494;SDS011;75532;49.300;6.846;2024-01-11T04:41:48;6.35;;;5.70;;
35494;SDS011;75532;49.300;6.846;2024-01-11T04:44:49;5.68;;;5.18;;
35494;SDS011;75532;49.300;6.846;2024-01-11T04:47:50;5.78;;;5.28;;
35494;SDS011;75532;49.300;6.846;2024-01-11T04:50:51;6.97;;;6.28;;
35494;SDS011;75532;49.300;6.846;2024-01-11T04:53:52;5.65;;;5.15;;
35494;SDS011;75532;49.300;6.846;2024-01-11T04:56:53;6.60;;;5.97;;
35494;SDS011;75532;49.300;6.846;2024-01-11T04:59:56;6.63;;;6.03;;
35494;SDS011;75532;49.300;6.846;2024-01-11T05:02:57;6.18;;;5.68;;
35494;SDS011;75532;49.300;6.846;2024-01-11T05:05:58;5.75;;;5.22;;
35494;SDS011;75532;49.300;6.846;2024-01-11T05:08:59;9.57;;;7.18;;
35494;SDS011;75532;49.300;6.846;2024-01-11T05:11:59;10.35;;;5.50;;
35494;SDS011;75532;49.300;6.846;2024-01-11T05:15:00;7.63;;;5.80;;
35494;SDS011;75532;49.300;6.846;2024-01-11T05:18:00;6.47;;;5.85;;
35494;SDS011;75532;49.300;6.846;2024-01-11T05:21:01;5.88;;;5.38;;
35494;SDS011;75532;49.300;6.846;2024-01-11T05:24:02;10.23;;;6.38;;
35494;SDS011;75532;49.300;6.846;2024-01-11T05:27:02;12.23;;;6.32;;
35494;SDS011;75532;49.300;6.846;2024-01-11T05:30:04;9.30;;;6.63;;
35494;SDS011;75532;49.300;6.846;2024-01-11T05:33:05;9.35;;;5.72;;
35494;SDS011;75532;49.300;6.846;2024-01-11T05:36:05;9.05;;;5.38;;
35494;SDS011;75532;49.300;6.846;2024-01-11T05:39:06;7.55;;;6.40;;
35494;SDS011;75532;49.300;6.846;2024-01-11T05:42:07;13.05;;;6.28;;
35494;SDS011;75532;49.300;6.846;2024-01-11T05:45:08;11.80;;;6.15;;
35494;SDS011;75532;49.300;6.846;2024-01-11T05:48:10;10.38;;;5.80;;
35494;SDS011;75532;49.300;6.846;2024-01-11T05:51:11;6.20;;;5.45;;
35494;SDS011;75532;49.300;6.846;2024-01-11T05:54:12;9.10;;;6.07;;
35494;SDS011;75532;49.300;6.846;2024-01-11T05:57:12;9.82;;;5.28;;
35494;SDS011;75532;49.300;6.846;2024-01-11T06:00:13;8.35;;;6.10;;
35494;SDS011;75532;49.300;6.846;2024-01-11T06:03:14;6.68;;;5.32;;
35494;SDS011;75532;49.300;6.846;2024-01-11T06:06:15;6.20;;;5.60;;
35494;SDS011;75532;49.300;6.846;2024-01-11T06:09:15;8.60;;;5.85;;
35494;SDS011;75532;49.300;6.846;2024-01-11T06:12:16;6.68;;;5.95;;
35494;SDS011;75532;49.300;6.846;2024-01-11T06:15:17;8.07;;;6.45;;
35494;SDS011;75532;49.300;6.846;2024-01-11T06:18:18;6.45;;;5.20;;
35494;SDS011;75532;49.300;6.846;2024-01-11T06:21:18;7.15;;;5.82;;
35494;SDS011;75532;49.300;6.846;2024-01-11T06:24:19;5.88;;;5.10;;
35494;SDS011;75532;49.300;6.846;2024-01-11T06:27:19;13.77;;;6.20;;
35494;SDS011;75532;49.300;6.846;2024-01-11T06:30:20;11.43;;;6.38;;
35494;SDS011;75532;49.300;6.846;2024-01-11T06:33:21;9.13;;;5.88;;
35494;SDS011;75532;49.300;6.846;2024-01-11T06:36:21;50.53;;;12.15;;
35494;SDS011;75532;49.300;6.846;2024-01-11T06:39:22;15.52;;;10.27;;
35494;SDS011;75532;49.300;6.846;2024-01-11T06:42:25;15.02;;;7.32;;
35494;SDS011;75532;49.300;6.846;2024-01-11T06:45:26;22.42;;;8.80;;
35494;SDS011;75532;49.300;6.846;2024-01-11T06:48:29;16.20;;;8.70;;
35494;SDS011;75532;49.300;6.846;2024-01-11T06:51:31;20.23;;;8.75;;
35494;SDS011;75532;49.300;6.846;2024-01-11T06:54:31;15.02;;;8.88;;
35494;SDS011;75532;49.300;6.846;2024-01-11T06:57:32;15.27;;;8.75;;
35494;SDS011;75532;49.300;6.846;2024-01-11T07:00:32;16.23;;;8.82;;
35494;SDS011;75532;49.300;6.846;2024-01-11T07:03:33;16.75;;;10.02;;
35494;SDS011;75532;49.300;6.846;2024-01-11T07:06:34;14.57;;;9.02;;
35494;SDS011;75532;49.300;6.846;2024-01-11T07:09:34;13.88;;;9.23;;
35494;SDS011;75532;49.300;6.846;2024-01-11T07:12:35;13.32;;;9.57;;
35494;SDS011;75532;49.300;6.846;2024-01-11T07:15:37;15.98;;;8.65;;
35494;SDS011;75532;49.300;6.846;2024-01-11T07:18:38;16.52;;;8.70;;
35494;SDS011;75532;49.300;6.846;2024-01-11T07:21:38;14.88;;;8.93;;
35494;SDS011;75532;49.300;6.846;2024-01-11T07:24:39;11.60;;;8.65;;
35494;SDS011;75532;49.300;6.846;2024-01-11T07:27:40;10.63;;;7.55;;
35494;SDS011;75532;49.300;6.846;2024-01-11T07:30:41;15.90;;;8.25;;
35494;SDS011;75532;49.300;6.846;2024-01-11T07:33:41;15.13;;;7.97;;
35494;SDS011;75532;49.300;6.846;2024-01-11T07:36:42;10.02;;;7.65;;
35494;SDS011;75532;49.300;6.846;2024-01-11T07:39:42;10.10;;;7.68;;
35494;SDS011;75532;49.300;6.846;2024-01-11T07:42:43;10.93;;;7.53;;
35494;SDS011;75532;49.300;6.846;2024-01-11T07:45:45;9.55;;;7.90;;
35494;SDS011;75532;49.300;6.846;2024-01-11T07:48:46;12.68;;;8.10;;
35494;SDS011;75532;49.300;6.846;2024-01-11T07:51:47;11.00;;;7.28;;
35494;SDS011;75532;49.300;6.846;2024-01-11T07:54:47;12.32;;;7.70;;
35494;SDS011;75532;49.300;6.846;2024-01-11T07:57:48;11.50;;;7.78;;
35494;SDS011;75532;49.300;6.846;2024-01-11T08:00:49;9.15;;;7.65;;
35494;SDS011;75532;49.300;6.846;2024-01-11T08:03:50;13.65;;;7.80;;
35494;SDS011;75532;49.300;6.846;2024-01-11T08:06:52;7.28;;;6.60;;
35494;SDS011;75532;49.300;6.846;2024-01-11T08:09:52;11.55;;;7.18;;
35494;SDS011;75532;49.300;6.846;2024-01-11T08:12:53;8.32;;;6.93;;
35494;SDS011;75532;49.300;6.846;2024-01-11T08:15:55;8.88;;;7.18;;
35494;SDS011;75532;49.300;6.846;2024-01-11T08:18:57;10.75;;;7.72;;
35494;SDS011;75532;49.300;6.846;2024-01-11T08:21:58;9.65;;;7.78;;
35494;SDS011;75532;49.300;6.846;2024-01-11T08:24:58;10.40;;;7.38;;
35494;SDS011;75532;49.300;6.846;2024-01-11T08:27:59;8.13;;;6.90;;
35494;SDS011;75532;49.300;6.846;2024-01-11T08:30:59;9.38;;;6.63;;
35494;SDS011;75532;49.300;6.846;2024-01-11T08:34:00;7.70;;;6.53;;
35494;SDS011;75532;49.300;6.846;2024-01-11T08:37:00;7.45;;;6.75;;
35494;SDS011;75532;49.300;6.846;2024-01-11T08:40:01;10.88;;;7.30;;
35494;SDS011;75532;49.300;6.846;2024-01-11T08:43:04;8.73;;;7.13;;
35494;SDS011;75532;49.300;6.846;2024-01-11T08:46:06;8.57;;;7.18;;
35494;SDS011;75532;49.300;6.846;2024-01-11T08:49:07;9.65;;;7.10;;
35494;SDS011;75532;49.300;6.846;2024-01-11T08:52:08;9.85;;;7.10;;
35494;SDS011;75532;49.300;6.846;2024-01-11T08:55:09;7.75;;;6.88;;
35494;SDS011;75532;49.300;6.846;2024-01-11T08:58:09;7.95;;;7.15;;
35494;SDS011;75532;49.300;6.846;2024-01-11T09:01:10;8.02;;;6.93;;
35494;SDS011;75532;49.300;6.846;2024-01-11T09:04:11;9.38;;;7.53;;
35494;SDS011;75532;49.300;6.846;2024-01-11T09:07:13;9.75;;;7.35;;
35494;SDS011;75532;49.300;6.846;2024-01-11T09:10:14;8.82;;;7.00;;
35494;SDS011;75532;49.300;6.846;2024-01-11T09:13:16;8.82;;;6.80;;
35494;SDS011;75532;49.300;6.846;2024-01-11T09:16:16;7.22;;;6.50;;
35494;SDS011;75532;49.300;6.846;2024-01-11T09:19:17;7.20;;;6.50;;
35494;SDS011;75532;49.300;6.846;2024-01-11T09:22:17;9.82;;;6.90;;
35494;SDS011;75532;49.300;6.846;2024-01-11T09:25:18;7.85;;;6.53;;
35494;SDS011;75532;49.300;6.846;2024-01-11T09:28:18;7.25;;;6.38;;
35494;SDS011;75532;49.300;6.846;2024-01-11T09:31:19;7.47;;;6.60;;
35494;SDS011;75532;49.300;6.846;2024-01-11T09:34:19;8.55;;;6.70;;
35494;SDS011;75532;49.300;6.846;2024-01-11T09:37:20;6.82;;;6.22;;
35494;SDS011;75532;49.300;6.846;2024-01-11T09:40:21;7.90;;;6.38;;
35494;SDS011;75532;49.300;6.846;2024-01-11T09:43:22;8.93;;;6.82;;
35494;SDS011;75532;49.300;6.846;2024-01-11T09:46:22;7.10;;;6.22;;
35494;SDS011;75532;49.300;6.846;2024-01-11T09:49:24;6.88;;;6.22;;
35494;SDS011;75532;49.300;6.846;2024-01-11T09:52:24;8.23;;;6.68;;
35494;SDS011;75532;49.300;6.846;2024-01-11T09:55:26;7.85;;;6.60;;
35494;SDS011;75532;49.300;6.846;2024-01-11T09:58:27;7.03;;;6.28;;
35494;SDS011;75532;49.300;6.846;2024-01-11T10:01:28;7.35;;;6.45;;
35494;SDS011;75532;49.300;6.846;2024-01-11T10:04:28;6.88;;;6.15;;
35494;SDS011;75532;49.300;6.846;2024-01-11T10:07:29;7.18;;;6.13;;
35494;SDS011;75532;49.300;6.846;2024-01-11T10:10:31;6.55;;;5.97;;
35494;SDS011;75532;49.300;6.846;2024-01-11T10:13:32;8.20;;;6.70;;
35494;SDS011;75532;49.300;6.846;2024-01-11T10:16:35;6.32;;;5.72;;
35494;SDS011;75532;49.300;6.846;2024-01-11T10:19:36;7.15;;;6.22;;
35494;SDS011;75532;49.300;6.846;2024-01-11T10:22:36;8.02;;;6.75;;
35494;SDS011;75532;49.300;6.846;2024-01-11T10:25:37;7.25;;;6.20;;
35494;SDS011;75532;49.300;6.846;2024-01-11T10:28:38;8.70;;;7.72;;
35494;SDS011;75532;49.300;6.846;2024-01-11T10:31:39;7.45;;;6.30;;
35494;SDS011;75532;49.300;6.846;2024-01-11T10:34:40;8.40;;;6.18;;
35494;SDS011;75532;49.300;6.846;2024-01-11T10:37:41;6.90;;;6.30;;
35494;SDS011;75532;49.300;6.846;2024-01-11T10:40:44;6.70;;;5.95;;
35494;SDS011;75532;49.300;6.846;2024-01-11T10:43:45;7.22;;;6.53;;
35494;SDS011;75532;49.300;6.846;2024-01-11T10:46:51;7.63;;;6.35;;
35494;SDS011;75532;49.300;6.846;2024-01-11T10:49:57;6.80;;;6.22;;
35494;SDS011;75532;49.300;6.846;2024-01-11T10:53:02;6.78;;;6.15;;
35494;SDS011;75532;49.300;6.846;2024-01-11T10:56:05;6.70;;;6.05;;
35494;SDS011;75532;49.300;6.846;2024-01-11T10:59:10;5.97;;;5.47;;
35494;SDS011;75532;49.300;6.846;2024-01-11T11:02:11;6.25;;;5.65;;
35494;SDS011;75532;49.300;6.846;2024-01-11T11:05:14;6.28;;;5.72;;
35494;SDS011;75532;49.300;6.846;2024-01-11T11:08:16;6.20;;;5.60;;
35494;SDS011;75532;49.300;6.846;2024-01-11T11:11:17;6.13;;;5.63;;
35494;SDS011;75532;49.300;6.846;2024-01-11T11:14:19;7.40;;;5.35;;
35494;SDS011;75532;49.300;6.846;2024-01-11T11:17:20;7.00;;;6.35;;
35494;SDS011;75532;49.300;6.846;2024-01-11T11:20:21;6.50;;;5.95;;
35494;SDS011;75532;49.300;6.846;2024-01-11T11:23:22;6.70;;;6.10;;
35494;SDS011;75532;49.300;6.846;2024-01-11T11:26:23;6.45;;;5.65;;
35494;SDS011;75532;49.300;6.846;2024-01-11T11:29:27;6.18;;;5.60;;
35494;SDS011;75532;49.300;6.846;2024-01-11T11:32:37;7.82;;;6.20;;
35494;SDS011;75532;49.300;6.846;2024-01-11T11:35:38;7.00;;;6.25;;
35494;SDS011;75532;49.300;6.846;2024-01-11T11:38:39;6.90;;;6.10;;
35494;SDS011;75532;49.300;6.846;2024-01-11T11:41:39;7.65;;;6.13;;
35494;SDS011;75532;49.300;6.846;2024-01-11T11:44:48;6.75;;;6.05;;
35494;SDS011;75532;49.300;6.846;2024-01-11T11:47:50;8.70;;;6.35;;
35494;SDS011;75532;49.300;6.846;2024-01-11T11:51:00;7.57;;;6.72;;
35494;SDS011;75532;49.300;6.846;2024-01-11T11:54:08;6.78;;;6.07;;
35494;SDS011;75532;49.300;6.846;2024-01-11T11:57:09;6.78;;;6.18;;
35494;SDS011;75532;49.300;6.846;2024-01-11T12:00:11;8.82;;;5.80;;
35494;SDS011;75532;49.300;6.846;2024-01-11T12:03:13;7.82;;;5.85;;
35494;SDS011;75532;49.300;6.846;2024-01-11T12:06:14;6.75;;;6.00;;
35494;SDS011;75532;49.300;6.846;2024-01-11T12:09:18;8.52;;;6.45;;
35494;SDS011;75532;49.300;6.846;2024-01-11T12:12:21;9.88;;;5.45;;
35494;SDS011;75532;49.300;6.846;2024-01-11T12:15:22;9.52;;;5.70;;
35494;SDS011;75532;49.300;6.846;2024-01-11T12:18:26;7.25;;;5.95;;
35494;SDS011;75532;49.300;6.846;2024-01-11T12:21:27;6.18;;;5.57;;
35494;SDS011;75532;49.300;6.846;2024-01-11T12:24:29;6.57;;;5.93;;
35494;SDS011;75532;49.300;6.846;2024-01-11T12:27:30;6.00;;;5.45;;
35494;SDS011;75532;49.300;6.846;2024-01-11T12:30:31;6.95;;;5.72;;
35494;SDS011;75532;49.300;6.846;2024-01-11T12:33:31;7.35;;;5.60;;
35494;SDS011;75532;49.300;6.846;2024-01-11T12:36:34;6.20;;;5.60;;
35494;SDS011;75532;49.300;6.846;2024-01-11T12:39:37;6.05;;;5.45;;
35494;SDS011;75532;49.300;6.846;2024-01-11T12:42:38;7.68;;;5.53;;
35494;SDS011;75532;49.300;6.846;2024-01-11T12:45:39;7.68;;;6.30;;
35494;SDS011;75532;49.300;6.846;2024-01-11T12:48:41;6.80;;;6.20;;
35494;SDS011;75532;49.300;6.846;2024-01-11T12:51:42;9.77;;;7.32;;
35494;SDS011;75532;49.300;6.846;2024-01-11T12:54:42;8.52;;;7.63;;
35494;SDS011;75532;49.300;6.846;2024-01-11T12:57:46;10.25;;;8.00;;
35494;SDS011;75532;49.300;6.846;2024-01-11T13:00:47;9.55;;;8.60;;
35494;SDS011;75532;49.300;6.846;2024-01-11T13:03:49;9.20;;;8.23;;
35494;SDS011;75532;49.300;6.846;2024-01-11T13:06:49;11.95;;;8.07;;
35494;SDS011;75532;49.300;6.846;2024-01-11T13:09:50;9.20;;;8.13;;
35494;SDS011;75532;49.300;6.846;2024-01-11T13:12:51;9.48;;;8.50;;
35494;SDS011;75532;49.300;6.846;2024-01-11T13:15:51;10.27;;;8.63;;
35494;SDS011;75532;49.300;6.846;2024-01-11T13:18:52;11.73;;;9.50;;
35494;SDS011;75532;49.300;6.846;2024-01-11T13:21:52;8.52;;;7.50;;
35494;SDS011;75532;49.300;6.846;2024-01-11T13:24:53;10.27;;;7.43;;
35494;SDS011;75532;49.300;6.846;2024-01-11T13:27:53;9.13;;;8.23;;
35494;SDS011;75532;49.300;6.846;2024-01-11T13:30:54;11.13;;;7.93;;
35494;SDS011;75532;49.300;6.846;2024-01-11T13:33:55;8.45;;;7.60;;
35494;SDS011;75532;49.300;6.846;2024-01-11T13:36:56;9.70;;;7.43;;
35494;SDS011;75532;49.300;6.846;2024-01-11T13:39:59;10.45;;;7.68;;
35494;SDS011;75532;49.300;6.846;2024-01-11T13:43:00;8.25;;;7.45;;
35494;SDS011;75532;49.300;6.846;2024-01-11T13:46:04;9.45;;;8.32;;
35494;SDS011;75532;49.300;6.846;2024-01-11T13:49:04;7.68;;;6.95;;
35494;SDS011;75532;49.300;6.846;2024-01-11T13:52:05;8.85;;;7.40;;
35494;SDS011;75532;49.300;6.846;2024-01-11T13:55:06;7.47;;;6.75;;
35494;SDS011;75532;49.300;6.846;2024-01-11T13:58:07;7.68;;;6.90;;
35494;SDS011;75532;49.300;6.846;2024-01-11T14:01:08;7.82;;;7.13;;
35494;SDS011;75532;49.300;6.846;2024-01-11T14:04:09;7.80;;;7.07;;
35494;SDS011;75532;49.300;6.846;2024-01-11T14:07:09;7.30;;;6.55;;
35494;SDS011;75532;49.300;6.846;2024-01-11T14:10:10;7.30;;;6.70;;
35494;SDS011;75532;49.300;6.846;2024-01-11T14:13:11;7.85;;;7.07;;
35494;SDS011;75532;49.300;6.846;2024-01-11T14:16:12;7.13;;;6.43;;
35494;SDS011;75532;49.300;6.846;2024-01-11T14:19:15;7.05;;;6.35;;
35494;SDS011;75532;49.300;6.846;2024-01-11T14:22:16;7.18;;;6.43;;
35494;SDS011;75532;49.300;6.846;2024-01-11T14:25:20;7.60;;;6.88;;
35494;SDS011;75532;49.300;6.846;2024-01-11T14:28:21;6.63;;;6.03;;
35494;SDS011;75532;49.300;6.846;2024-01-11T14:31:22;6.88;;;6.07;;
35494;SDS011;75532;49.300;6.846;2024-01-11T14:34:22;7.60;;;6.68;;
35494;SDS011;75532;49.300;6.846;2024-01-11T14:37:24;7.20;;;6.50;;
35494;SDS011;75532;49.300;6.846;2024-01-11T14:40:24;6.88;;;5.80;;
35494;SDS011;75532;49.300;6.846;2024-01-11T14:43:25;8.38;;;6.38;;
35494;SDS011;75532;49.300;6.846;2024-01-11T14:46:26;6.35;;;5.82;;
35494;SDS011;75532;49.300;6.846;2024-01-11T14:49:26;6.72;;;6.03;;
35494;SDS011;75532;49.300;6.846;2024-01-11T14:52:29;6.20;;;5.70;;
35494;SDS011;75532;49.300;6.846;2024-01-11T14:55:30;6.82;;;6.22;;
35494;SDS011;75532;49.300;6.846;2024-01-11T14:58:31;6.68;;;6.07;;
35494;SDS011;75532;49.300;6.846;2024-01-11T15:01:32;6.55;;;5.97;;
35494;SDS011;75532;49.300;6.846;2024-01-11T15:04:32;6.70;;;5.90;;
35494;SDS011;75532;49.300;6.846;2024-01-11T15:07:33;6.13;;;5.53;;
35494;SDS011;75532;49.300;6.846;2024-01-11T15:10:33;6.10;;;5.50;;
35494;SDS011;75532;49.300;6.846;2024-01-11T15:13:34;5.93;;;5.45;;
35494;SDS011;75532;49.300;6.846;2024-01-11T15:16:35;6.05;;;5.43;;
35494;SDS011;75532;49.300;6.846;2024-01-11T15:19:36;5.90;;;5.40;;
35494;SDS011;75532;49.300;6.846;2024-01-11T15:22:37;5.50;;;5.00;;
35494;SDS011;75532;49.300;6.846;2024-01-11T15:25:39;6.03;;;5.45;;
35494;SDS011;75532;49.300;6.846;2024-01-11T15:28:40;5.60;;;5.10;;
35494;SDS011;75532;49.300;6.846;2024-01-11T15:31:43;6.13;;;5.47;;
35494;SDS011;75532;49.300;6.846;2024-01-11T15:34:49;7.97;;;5.40;;
35494;SDS011;75532;49.300;6.846;2024-01-11T15:37:49;6.05;;;5.25;;
35494;SDS011;75532;49.300;6.846;2024-01-11T15:40:50;6.53;;;5.15;;
35494;SDS011;75532;49.300;6.846;2024-01-11T15:43:50;7.28;;;4.82;;
35494;SDS011;75532;49.300;6.846;2024-01-11T15:46:51;5.22;;;4.72;;
35494;SDS011;75532;49.300;6.846;2024-01-11T15:49:51;6.75;;;5.55;;
35494;SDS011;75532;49.300;6.846;2024-01-11T15:52:52;7.43;;;5.30;;
35494;SDS011;75532;49.300;6.846;2024-01-11T15:55:52;6.90;;;5.85;;
35494;SDS011;75532;49.300;6.846;2024-01-11T15:58:53;6.15;;;5.22;;
35494;SDS011;75532;49.300;6.846;2024-01-11T16:01:53;6.20;;;5.60;;
35494;SDS011;75532;49.300;6.846;2024-01-11T16:04:54;5.50;;;5.00;;
35494;SDS011;75532;49.300;6.846;2024-01-11T16:07:55;5.75;;;5.25;;
35494;SDS011;75532;49.300;6.846;2024-01-11T16:10:55;9.73;;;5.35;;
35494;SDS011;75532;49.300;6.846;2024-01-11T16:13:56;10.25;;;5.68;;
35494;SDS011;75532;49.300;6.846;2024-01-11T16:16:57;5.45;;;4.95;;
35494;SDS011;75532;49.300;6.846;2024-01-11T16:19:57;6.80;;;4.75;;
35494;SDS011;75532;49.300;6.846;2024-01-11T16:22:58;6.72;;;5.10;;
35494;SDS011;75532;49.300;6.846;2024-01-11T16:25:59;5.53;;;5.03;;
35494;SDS011;75532;49.300;6.846;2024-01-11T16:29:00;5.82;;;5.20;;
35494;SDS011;75532;49.300;6.846;2024-01-11T16:32:00;7.07;;;5.20;;
35494;SDS011;75532;49.300;6.846;2024-01-11T16:35:01;5.97;;;5.30;;
35494;SDS011;75532;49.300;6.846;2024-01-11T16:38:02;5.30;;;4.90;;
35494;SDS011;75532;49.300;6.846;2024-01-11T16:41:06;5.95;;;5.20;;
35494;SDS011;75532;49.300;6.846;2024-01-11T16:44:07;5.60;;;5.10;;
35494;SDS011;75532;49.300;6.846;2024-01-11T16:47:08;5.50;;;5.05;;
35494;SDS011;75532;49.300;6.846;2024-01-11T16:50:09;5.75;;;5.18;;
35494;SDS011;75532;49.300;6.846;2024-01-11T16:53:09;6.35;;;5.20;;
35494;SDS011;75532;49.300;6.846;2024-01-11T16:56:10;5.43;;;4.93;;
35494;SDS011;75532;49.300;6.846;2024-01-11T16:59:10;5.70;;;5.15;;
35494;SDS011;75532;49.300;6.846;2024-01-11T17:02:13;5.40;;;4.90;;
35494;SDS011;75532;49.300;6.846;2024-01-11T17:05:13;4.95;;;4.63;;
35494;SDS011;75532;49.300;6.846;2024-01-11T17:08:15;5.93;;;5.07;;
35494;SDS011;75532;49.300;6.846;2024-01-11T17:11:15;6.90;;;5.10;;
35494;SDS011;75532;49.300;6.846;2024-01-11T17:14:16;5.70;;;4.95;;
35494;SDS011;75532;49.300;6.846;2024-01-11T17:17:16;7.32;;;6.10;;
35494;SDS011;75532;49.300;6.846;2024-01-11T17:20:17;10.68;;;9.35;;
35494;SDS011;75532;49.300;6.846;2024-01-11T17:23:18;22.55;;;17.20;;
35494;SDS011;75532;49.300;6.846;2024-01-11T17:26:18;20.75;;;17.33;;
35494;SDS011;75532;49.300;6.846;2024-01-11T17:29:19;19.00;;;14.45;;
35494;SDS011;75532;49.300;6.846;2024-01-11T17:32:19;24.05;;;15.00;;
35494;SDS011;75532;49.300;6.846;2024-01-11T17:35:20;26.15;;;18.83;;
35494;SDS011;75532;49.300;6.846;2024-01-11T17:38:20;22.50;;;17.83;;
35494;SDS011;75532;49.300;6.846;2024-01-11T17:41:21;20.08;;;17.10;;
35494;SDS011;75532;49.300;6.846;2024-01-11T17:44:22;25.88;;;18.88;;
35494;SDS011;75532;49.300;6.846;2024-01-11T17:47:24;19.88;;;16.92;;
35494;SDS011;75532;49.300;6.846;2024-01-11T17:50:25;19.80;;;15.75;;
35494;SDS011;75532;49.300;6.846;2024-01-11T17:53:26;19.02;;;16.33;;
35494;SDS011;75532;49.300;6.846;2024-01-11T17:56:28;19.05;;;16.13;;
35494;SDS011;75532;49.300;6.846;2024-01-11T17:59:28;17.30;;;14.07;;
35494;SDS011;75532;49.300;6.846;2024-01-11T18:02:30;16.63;;;13.23;;
35494;SDS011;75532;49.300;6.846;2024-01-11T18:05:31;16.70;;;14.23;;
35494;SDS011;75532;49.300;6.846;2024-01-11T18:08:31;15.15;;;12.85;;